Palm Beach Gardens, Florida
Current Conditions -  °F | °C
As of 3:53 AM on Sunday 26 Oct 2014 (Local Time) from KPBI Reporting Station
Scattered Clouds Scattered Clouds  
Wind Chill: 68°   Ceiling: Unl
Heat Index: 68°   Visibility: 10mi
Dew Point: 65°   Wind: 6mph
Humidity: 90%   Direction: 330°NNW
Pressure: 29.89"   Gusts: NA
Location:  26.85°N, 80.09°W
Report Text: KPBI 260753Z 33005KT 10SM SCT045 20/18 A2989 RMK AO2 SLP121 T02000183
Loading
Personal Weather Stations






























Interactive Weather Map New forecast layout! Learn more

10-Day Weather Forecast

Advertisements
Track Severe Weather on mobile